Time;durP1;ratioP1;P1;durP2;ratioP2;P2;SDS_P1;SDS_P2;PMS_P1;PMS_P2;Temp;Humidity;BMP_temperature;BMP_pressure;BME280_temperature;BME280_humidity;BME280_pressure;Samples;Min_cycle;Max_cycle;Signal;HPM_P1;HPM_P2
2022/02/09 00:00:04;;;;;;;3.63;2.25;;;;;;;8.92;97.21;102604.41;10377564;28;20085;-76
2022/02/09 00:10:24;;;;;;;12.98;2.42;;;;;;;8.97;97.32;102594.03;10377657;28;20461;-76
2022/02/09 00:15:35;;;;;;;10.35;2.08;;;;;;;8.91;96.72;102592.75;10379922;28;20065;-76
2022/02/09 00:37:34;;;;;;;2.67;2.08;;;;;;;8.94;97.08;102576.25;10201076;29;20143;-75
2022/02/09 01:56:56;;;;;;;13.98;3.08;;;;;;;9.00;99.83;102567.56;10320035;28;20500;-76
2022/02/09 02:01:57;;;;;;;10.23;3.53;;;;;;;8.94;99.92;102554.63;10396799;28;20064;-76
2022/02/09 02:06:57;;;;;;;9.43;5.40;;;;;;;9.00;100.00;102558.59;10414695;28;20034;-76
2022/02/09 02:12:06;;;;;;;10.65;4.32;;;;;;;9.00;100.00;102545.09;10414426;28;20069;-75
2022/02/09 02:17:35;;;;;;;5.30;4.00;;;;;;;9.02;100.00;102554.75;10414553;28;20037;-76
2022/02/09 02:23:04;;;;;;;4.35;3.22;;;;;;;8.98;100.00;102542.53;10400891;28;20037;-75
2022/02/09 02:28:34;;;;;;;4.68;3.90;;;;;;;8.97;100.00;102523.78;10413315;28;20045;-76
2022/02/09 03:15:14;;;;;;;5.20;4.22;;;;;;;8.92;100.00;102494.47;10421146;28;20037;-76
2022/02/09 03:20:31;;;;;;;6.33;3.37;;;;;;;8.96;100.00;102490.47;10421175;28;20489;-75
2022/02/09 03:52:43;;;;;;;8.88;3.63;;;;;;;8.98;100.00;102479.53;10419063;28;20037;-76
2022/02/09 03:57:31;;;;;;;5.25;3.40;;;;;;;8.93;100.00;102484.53;10401922;28;20049;-76
2022/02/09 04:02:32;;;;;;;11.57;4.60;;;;;;;8.86;100.00;102473.44;10418148;28;20033;-76
2022/02/09 04:07:32;;;;;;;6.50;4.55;;;;;;;8.87;100.00;102477.00;10418618;28;20034;-76
2022/02/09 04:36:06;;;;;;;5.22;4.32;;;;;;;8.81;100.00;102467.66;10389786;28;20045;-75
2022/02/09 04:54:57;;;;;;;7.63;3.97;;;;;;;8.77;100.00;102450.03;10415781;28;20045;-76
2022/02/09 05:25:51;;;;;;;6.20;5.05;;;;;;;8.56;100.00;102443.00;10414977;28;20069;-76
2022/02/09 05:30:52;;;;;;;6.63;5.30;;;;;;;8.55;100.00;102454.81;10328945;28;20052;-73
2022/02/09 05:35:52;;;;;;;9.65;4.38;;;;;;;8.59;100.00;102445.41;10414691;28;20036;-73
2022/02/09 05:40:53;;;;;;;9.23;4.32;;;;;;;8.58;100.00;102459.91;10414831;28;20104;-73
2022/02/09 05:56:08;;;;;;;5.68;3.83;;;;;;;8.57;100.00;102452.78;10414142;28;20099;-78
2022/02/09 06:01:10;;;;;;;5.35;4.20;;;;;;;8.64;100.00;102446.81;10414500;28;20065;-75
2022/02/09 06:06:10;;;;;;;9.65;4.25;;;;;;;8.63;100.00;102445.97;10414225;28;20473;-76
2022/02/09 06:11:23;;;;;;;9.05;5.32;;;;;;;8.56;100.00;102443.00;10414552;28;20065;-75
2022/02/09 06:21:43;;;;;;;4.80;4.20;;;;;;;8.62;100.00;102444.28;10399746;28;20037;-76
2022/02/09 06:26:43;;;;;;;3.88;3.25;;;;;;;8.53;100.00;102443.28;10419512;28;20029;-76
2022/02/09 06:31:44;;;;;;;6.97;4.57;;;;;;;8.47;100.00;102449.28;10404252;28;20465;-76
2022/02/09 06:36:51;;;;;;;5.53;4.03;;;;;;;8.47;100.00;102449.28;10404084;28;20041;-76
2022/02/09 06:41:52;;;;;;;5.40;4.55;;;;;;;8.46;100.00;102433.22;10387815;28;20129;-76
2022/02/09 06:46:52;;;;;;;7.60;3.70;;;;;;;8.48;100.00;102445.56;10421442;28;20033;-76
2022/02/09 06:51:53;;;;;;;4.78;4.38;;;;;;;8.50;100.00;102432.78;10421423;28;20084;-76
2022/02/09 07:01:54;;;;;;;4.90;3.83;;;;;;;8.69;100.00;102434.56;10417188;28;20053;-76
2022/02/09 07:06:55;;;;;;;8.40;4.82;;;;;;;8.65;100.00;102427.78;10419186;28;20538;-76
2022/02/09 07:11:56;;;;;;;12.68;6.05;;;;;;;8.59;100.00;102422.97;10420662;28;20033;-76
2022/02/09 07:16:57;;;;;;;8.88;6.53;;;;;;;8.58;100.00;102429.34;10403297;28;20112;-76
2022/02/09 07:21:58;;;;;;;10.00;6.15;;;;;;;8.58;100.00;102424.81;10420952;28;20037;-76
2022/02/09 07:27:24;;;;;;;11.15;6.82;;;;;;;8.55;100.00;102421.53;10419052;28;20045;-76
2022/02/09 07:32:21;;;;;;;11.48;8.55;;;;;;;8.61;100.00;102437.13;10419824;28;20049;-76
2022/02/09 07:37:22;;;;;;;8.60;6.75;;;;;;;8.59;100.00;102434.59;10417265;28;20396;-75
2022/02/09 07:42:26;;;;;;;10.63;6.70;;;;;;;8.55;100.00;102435.91;10418121;28;20425;-75
2022/02/09 07:52:48;;;;;;;24.27;7.80;;;;;;;8.52;100.00;102441.59;10419240;28;20049;-75
2022/02/09 07:57:48;;;;;;;7.85;5.03;;;;;;;8.61;100.00;102426.34;10414746;28;20057;-75
2022/02/09 08:02:52;;;;;;;7.32;6.63;;;;;;;8.60;100.00;102430.91;10377512;28;20041;-75
2022/02/09 08:07:53;;;;;;;11.55;6.60;;;;;;;8.62;100.00;102444.28;10360400;28;20040;-75
2022/02/09 08:34:11;;;;;;;6.53;5.88;;;;;;;8.87;100.00;102425.69;10326043;28;20050;-75
2022/02/09 08:39:11;;;;;;;6.60;5.65;;;;;;;8.93;100.00;102435.88;10376189;28;20045;-74
2022/02/09 08:44:12;;;;;;;10.77;6.30;;;;;;;8.86;100.00;102441.03;10358244;28;20393;-75
2022/02/09 08:49:12;;;;;;;9.57;8.18;;;;;;;8.87;99.98;102441.88;10357990;28;20053;-75
2022/02/09 08:54:12;;;;;;;9.10;6.65;;;;;;;8.92;99.62;102445.84;10375072;28;20072;-75
2022/02/09 08:59:13;;;;;;;15.98;8.52;;;;;;;9.00;99.94;102431.63;10359953;28;20042;-75
2022/02/09 09:04:24;;;;;;;9.55;6.30;;;;;;;9.04;99.98;102444.66;10375335;28;20045;-75
2022/02/09 09:15:19;;;;;;;9.43;7.35;;;;;;;9.30;98.86;102430.44;10359958;28;20087;-75
2022/02/09 10:02:54;;;;;;;6.45;5.85;;;;;;;10.21;92.83;102454.63;10411167;28;20062;-75
2022/02/09 10:34:47;;;;;;;9.85;6.85;;;;;;;10.53;90.11;102464.03;10427181;28;20069;-75
2022/02/09 10:45:06;;;;;;;9.98;7.95;;;;;;;10.08;92.14;102476.69;10410147;28;20045;-75
2022/02/09 10:50:23;;;;;;;14.73;8.43;;;;;;;10.07;92.47;102468.75;10411367;28;20038;-75
2022/02/09 10:55:28;;;;;;;12.80;9.10;;;;;;;9.94;92.48;102477.25;10426057;28;20076;-75
2022/02/09 11:00:29;;;;;;;13.13;7.93;;;;;;;10.07;92.90;102479.56;10427018;28;20283;-75
2022/02/09 11:05:29;;;;;;;11.95;8.13;;;;;;;10.08;92.65;102482.09;10409081;28;20555;-75
2022/02/09 11:10:29;;;;;;;9.27;7.80;;;;;;;10.06;91.85;102488.72;10407247;28;20100;-75
2022/02/09 11:15:30;;;;;;;9.80;8.50;;;;;;;10.06;91.82;102473.31;10402385;28;20034;-75
2022/02/09 11:20:32;;;;;;;12.07;8.38;;;;;;;10.24;91.60;102471.44;10385597;28;20472;-75
2022/02/09 11:25:33;;;;;;;10.38;7.93;;;;;;;10.45;90.78;102487.38;10419516;28;20484;-74
2022/02/09 11:30:41;;;;;;;8.93;6.57;;;;;;;10.43;90.17;102478.56;10421314;28;20044;-75
2022/02/09 11:36:46;;;;;;;10.77;7.10;;;;;;;10.32;90.10;102478.81;10388399;28;20029;-75
2022/02/09 11:41:51;;;;;;;8.77;6.55;;;;;;;10.31;91.14;102466.28;10416939;28;20088;-75
2022/02/09 12:13:01;;;;;;;7.53;6.80;;;;;;;10.28;91.81;102444.09;10402851;28;20033;-75
2022/02/09 12:18:15;;;;;;;8.52;6.78;;;;;;;10.30;91.30;102434.78;10401198;28;20042;-75
2022/02/09 12:23:29;;;;;;;7.22;6.10;;;;;;;10.14;91.77;102431.91;10400705;28;20040;-75
2022/02/09 12:28:35;;;;;;;10.73;6.70;;;;;;;10.16;91.99;102425.34;10416750;28;20140;-75
2022/02/09 12:33:40;;;;;;;12.50;6.80;;;;;;;10.29;92.05;102424.13;10417228;28;20030;-75
2022/02/09 12:38:41;;;;;;;19.38;8.05;;;;;;;10.60;90.97;102427.19;10416917;28;20021;-75
2022/02/09 12:43:47;;;;;;;8.80;6.60;;;;;;;10.61;90.74;102428.91;10399185;28;20048;-76
2022/02/09 12:48:48;;;;;;;11.23;7.07;;;;;;;10.64;88.94;102409.63;10416661;28;20038;-75
2022/02/09 12:53:49;;;;;;;11.85;6.25;;;;;;;10.67;89.94;102437.22;10398405;28;20041;-75
2022/02/09 12:59:10;;;;;;;8.43;5.80;;;;;;;10.74;89.05;102423.88;10397958;28;20523;-75
2022/02/09 13:04:10;;;;;;;8.18;5.65;;;;;;;10.71;89.76;102426.91;10416089;28;20045;-75
2022/02/09 13:09:15;;;;;;;15.68;6.85;;;;;;;10.71;90.23;102425.03;10398281;28;20379;-74
2022/02/09 13:14:26;;;;;;;23.35;5.85;;;;;;;10.62;89.69;102422.47;10397803;28;20033;-75
2022/02/09 13:19:56;;;;;;;17.95;6.97;;;;;;;10.81;90.44;102418.66;10399243;28;20034;-75
2022/02/09 14:10:27;;;;;;;12.30;6.03;;;;;;;10.10;91.41;102401.59;10415018;28;20052;-75
2022/02/09 15:00:56;;;;;;;25.63;9.07;;;;;;;9.38;96.21;102421.56;10406147;28;20096;-75
2022/02/09 15:16:34;;;;;;;16.17;9.20;;;;;;;9.21;97.83;102423.22;10364176;28;20474;-75
2022/02/09 15:26:56;;;;;;;10.95;7.78;;;;;;;8.97;99.21;102427.34;10378993;28;20042;-75
2022/02/09 15:32:01;;;;;;;18.25;9.13;;;;;;;8.92;99.56;102423.38;10378902;28;20045;-75
2022/02/09 16:25:54;;;;;;;19.58;10.73;;;;;;;8.66;100.00;102412.41;10353436;28;20100;-74
2022/02/09 16:46:16;;;;;;;13.35;8.75;;;;;;;8.60;100.00;102397.66;10361362;28;20046;-75
2022/02/09 16:51:19;;;;;;;12.25;6.90;;;;;;;8.56;100.00;102397.09;10375937;28;20432;-74
2022/02/09 17:22:41;;;;;;;19.60;8.80;;;;;;;8.69;100.00;102393.22;10374744;28;20046;-75
2022/02/09 17:27:43;;;;;;;26.20;8.73;;;;;;;8.71;100.00;102399.31;10373840;28;20042;-75
2022/02/09 17:32:53;;;;;;;12.73;7.20;;;;;;;8.75;100.00;102395.31;10374238;28;20108;-75
2022/02/09 17:53:37;;;;;;;18.73;9.25;;;;;;;8.78;100.00;102385.06;10373860;28;20037;-75
2022/02/09 17:58:45;;;;;;;19.98;8.80;;;;;;;8.79;100.00;102375.09;10373365;28;20041;-75
2022/02/09 18:03:46;;;;;;;11.25;8.30;;;;;;;8.75;100.00;102369.16;10396003;28;20483;-75
2022/02/09 18:09:09;;;;;;;16.05;9.45;;;;;;;8.73;100.00;102364.91;10380515;28;20044;-75
2022/02/09 18:30:00;;;;;;;16.90;7.30;;;;;;;8.55;100.00;102354.03;10407360;28;20124;-75
2022/02/09 19:06:20;;;;;;;25.42;10.73;;;;;;;8.65;100.00;102335.06;10420988;28;20121;-75
2022/02/09 19:32:28;;;;;;;16.45;8.27;;;;;;;8.52;100.00;102312.00;10401464;28;20109;-75
2022/02/09 19:48:09;;;;;;;28.48;8.50;;;;;;;8.52;100.00;102311.13;10419675;28;20119;-75
2022/02/09 19:58:13;;;;;;;16.55;7.15;;;;;;;8.50;100.00;102305.88;10418688;28;20417;-74
2022/02/09 20:03:14;;;;;;;19.88;6.68;;;;;;;8.54;100.00;102303.75;10370716;28;20061;-75
2022/02/09 20:08:14;;;;;;;7.28;6.53;;;;;;;8.53;100.00;102300.19;10377399;28;20045;-75
2022/02/09 20:13:15;;;;;;;8.02;6.70;;;;;;;8.57;100.00;102298.88;10377469;28;20366;-75
2022/02/09 20:18:15;;;;;;;9.15;5.93;;;;;;;8.58;100.00;102299.72;10376991;28;20041;-75
2022/02/09 20:23:16;;;;;;;17.02;6.72;;;;;;;8.65;100.00;102299.97;10376992;28;20080;-75
2022/02/09 20:28:17;;;;;;;15.52;7.90;;;;;;;8.74;100.00;102296.38;10381053;28;20046;-74
2022/02/09 20:33:22;;;;;;;18.20;8.27;;;;;;;8.75;100.00;102281.88;10376995;28;20030;-74
2022/02/09 20:38:26;;;;;;;15.70;8.70;;;;;;;8.75;100.00;102284.59;10373255;28;20037;-73
2022/02/09 20:43:26;;;;;;;17.95;7.85;;;;;;;8.66;100.00;102267.44;10357243;28;20038;-74
2022/02/09 20:48:27;;;;;;;19.23;9.13;;;;;;;8.73;100.00;102270.38;10357994;28;20045;-73
2022/02/09 20:53:28;;;;;;;18.02;9.77;;;;;;;8.72;100.00;102279.50;10375290;28;20072;-74
2022/02/09 20:58:33;;;;;;;21.02;8.73;;;;;;;8.72;100.00;102271.38;10357227;28;20401;-73
2022/02/09 21:08:47;;;;;;;20.27;10.30;;;;;;;8.74;100.00;102255.84;10416175;28;20041;-73
2022/02/09 22:48:24;;;;;;;28.08;15.85;;;;;;;8.52;100.00;102178.84;10373962;28;20478;-74
2022/02/09 22:58:43;;;;;;;24.52;17.52;;;;;;;8.49;100.00;102173.78;10357195;28;20042;-74
2022/02/09 23:14:40;;;;;;;31.80;18.65;;;;;;;8.51;100.00;102160.94;10380075;28;20029;-74
